Meteo Giornale » Osservazioni meteo Stati Uniti (USA) » Chino

ore: 10:53 - Osservazioni Meteo Chino
Lat. 33° 58' N Lon. 117° 37' W Alt. 198 metri s.l.m.

sereno

26 °C

Sereno

Temp. 24 Ore

16 °C

33 °C

Nord

0 Km/h

Dew point 14 °C

Umidità 47 %

Visibilità  10 Km

Il sole sorge alle ore 06:24

Il sole tramonta alle ore 19:16

Data e Ora Cielo e Fenomeni T °C DP °C Um. % Pres. hPa Vis. km Vento km/h
Oggi h: 10:53 sereno Sereno 26 14 47 1016 10 N 0
Oggi h: 09:53 sereno Sereno 24 16 60 1016 10 N 5.5
Oggi h: 08:53 sereno Sereno 21 16 73 1016 10 N 0
Oggi h: 07:53 sereno Sereno 18 16 88 1016 11 N 5.5
Oggi h: 06:53 sereno Sereno 16 15 93 1015 11 O 7.4
Oggi h: 05:53 sereno Sereno 17 16 93 1015 14 N 0
Oggi h: 04:53 sereno Sereno 17 16 93 1015 10 N 0
Oggi h: 03:53 sereno Sereno 17 16 93 1015 10 N 0
Oggi h: 02:53 sereno Sereno 17 15 88 1015 10 N 0
Oggi h: 01:53 sereno Sereno 18 16 88 1015 10 N 5.5
Oggi h: 00:53 sereno Sereno 19 15 77 1015 10 O/NO 7.4
Ieri h: 23:53 sereno Sereno 19 16 82 1015 10 O 9.3
Ieri h: 22:53 sereno Sereno 20 15 72 1015 10 N 0
Ieri h: 21:53 sereno Sereno 21 14 64 1014 10 N 0
Ieri h: 20:53 sereno Sereno 22 15 64 1013 10 O 18.5
Ieri h: 18:53 sereno Sereno 26 12 41 1012 10 O 24
Ieri h: 17:53 poco_nuvoloso Poco Nuvoloso 29 10 30 1012 10 O/SO 22.2
Ieri h: 16:53 poco_nuvoloso Poco Nuvoloso 31 11 29 1012 10 O 29.6
Ieri h: 15:53 poco_nuvoloso Poco Nuvoloso 32 14 33 1012 10 O/SO 25.9
Ieri h: 13:53 sereno Sereno 33 13 29 1013 10 SO 20.3
Ieri h: 12:53 sereno Sereno 32 15 35 1013 10 SO 14.8
Ieri h: 11:53 poco_nuvoloso Poco Nuvoloso 30 17 45 1014 10 SO 9.3